Accueil
METAR-TAF:

METAR-TAF

Aéroports :

Aéroport de Chibougamau-Chapais

Chibougamau, Québec, Canada

latitude: 49-46N, longitude: 074-32W, altitude: 388 m

Observation

Le bulletin a été fait il y a 20 minutes, à 03:00 UTC
Vent 4 kt de nord-est
Température 10°C
Humidité 66%
Pression 1018 hPa
Visibilité: 14.5 km
Ciel clair

METAR: CYMT 190300Z AUTO 04004KT 9SM CLR 10/04 A3006 RMK SLP188

Heure: 23:20 (03:20 UTC)

Prévision

Le bulletin a été fait il y a 9 heures et 42 minutes, à 17:38 UTC
Prévision valable du 18 à 18 UTC au 18 à 24 UTC
Vent 8 kt de nord
Visibilité: 10 km
Ciel clair

TAF: CYMT 181738Z 1818/1824 01008KT P6SM SKC RMK FCST BASED ON AUTO OBS. NXT FCST WILL BE ISSUED AT 191145Z

Observations et prévisions météorologiques de plus de 4000 aéroports (messages METAR et TAF).

Les stations disponibles sont représentées par des disques jaunes et rouges sur la carte.

Passer la souris dessus pour voir le nom de la station.

Cliquer dessus pour voir les observations et prévisions météorologiques.

Pour changer de carte: cliquez sur les boutons verts avec une croix noire pour zoomer, sur le bouton vert avec un tiret pour effectuer un zoom arrière, ou sur les flèches vertes pour les cartes adjacentes.


METAR-TAF: